createdAt,value
2018-05-02T00:02:23.456Z,4.37
2018-05-02T00:04:55.026Z,3.80
2018-05-02T00:09:57.483Z,3.70
2018-05-02T00:12:30.888Z,3.03
2018-05-02T00:15:03.290Z,3.30
2018-05-02T00:17:35.448Z,3.42
2018-05-02T00:20:07.482Z,2.77
2018-05-02T00:22:40.083Z,3.77
2018-05-02T00:25:14.889Z,4.00
2018-05-02T00:27:47.680Z,3.57
2018-05-02T00:30:20.059Z,2.43
2018-05-02T00:32:51.569Z,2.40
2018-05-02T00:35:23.189Z,4.07
2018-05-02T00:37:54.815Z,2.37
2018-05-02T00:40:26.664Z,2.83
2018-05-02T00:42:58.444Z,3.83
2018-05-02T00:46:57.671Z,3.93
2018-05-02T00:49:29.280Z,4.07
2018-05-02T00:52:00.972Z,4.23
2018-05-02T00:54:32.989Z,5.27
2018-05-02T00:57:05.001Z,3.83
2018-05-02T00:59:36.841Z,5.10
2018-05-02T01:02:08.620Z,5.27
2018-05-02T01:04:40.443Z,7.40
2018-05-02T01:07:12.134Z,7.87
2018-05-02T01:09:43.988Z,6.33
2018-05-02T01:12:15.580Z,7.00
2018-05-02T01:14:47.867Z,4.62
2018-05-02T01:19:50.147Z,6.90
2018-05-02T01:22:21.579Z,6.27
2018-05-02T01:26:26.593Z,6.00
2018-05-02T01:28:58.464Z,5.57
2018-05-02T01:31:30.270Z,6.23
2018-05-02T01:34:02.261Z,6.60
2018-05-02T01:36:34.086Z,3.90
2018-05-02T01:39:05.772Z,4.70
2018-05-02T01:41:37.467Z,4.30
2018-05-02T01:44:09.447Z,6.30
2018-05-02T01:46:41.233Z,5.70
2018-05-02T01:49:24.531Z,6.27
2018-05-02T01:51:57.291Z,4.50
2018-05-02T01:54:30.077Z,5.80
2018-05-02T01:57:02.306Z,6.40
2018-05-02T01:59:35.459Z,6.10
2018-05-02T02:02:08.112Z,7.27
2018-05-02T02:04:40.041Z,5.20
2018-05-02T02:07:12.109Z,4.93
2018-05-02T02:09:45.590Z,5.70
2018-05-02T02:12:18.057Z,6.50
2018-05-02T02:14:50.124Z,7.20
2018-05-02T02:17:22.036Z,6.17
2018-05-02T02:19:54.032Z,7.78
2018-05-02T02:22:28.101Z,6.43
2018-05-02T02:25:00.052Z,4.43
2018-05-02T02:27:32.081Z,7.30
2018-05-02T02:30:03.864Z,9.73
2018-05-02T02:32:35.972Z,9.30
2018-05-02T02:35:07.998Z,8.17
2018-05-02T02:37:40.275Z,9.70
2018-05-02T02:40:12.075Z,10.53
2018-05-02T02:42:44.003Z,12.03
2018-05-02T02:45:15.548Z,10.93
2018-05-02T02:47:47.449Z,9.23
2018-05-02T02:50:19.135Z,7.30
2018-05-02T02:52:50.709Z,11.07
2018-05-02T02:55:22.481Z,12.13
2018-05-02T02:57:54.819Z,10.53
2018-05-02T03:00:26.695Z,11.07
2018-05-02T03:02:59.555Z,10.53
2018-05-02T03:05:31.148Z,9.47
2018-05-02T03:08:03.051Z,10.03
2018-05-02T03:10:34.913Z,9.60
2018-05-02T03:14:57.891Z,10.57
2018-05-02T03:18:30.433Z,10.97
2018-05-02T03:21:02.335Z,12.73
2018-05-02T03:23:39.420Z,13.75
2018-05-02T03:26:11.454Z,15.30
2018-05-02T03:28:43.609Z,14.75
2018-05-02T03:31:16.622Z,11.10
2018-05-02T03:33:48.543Z,13.43
2018-05-02T03:37:36.272Z,27.90
2018-05-02T03:40:10.410Z,12.73
2018-05-02T03:42:45.707Z,18.00
2018-05-02T03:45:18.427Z,14.00
2018-05-02T03:47:51.763Z,15.93
2018-05-02T03:50:23.398Z,14.00
2018-05-02T03:52:54.970Z,14.23
2018-05-02T03:55:27.266Z,13.57
2018-05-02T03:57:59.227Z,14.50
2018-05-02T04:00:41.774Z,13.43
2018-05-02T04:03:24.487Z,14.10
2018-05-02T04:09:09.034Z,18.70
2018-05-02T04:11:42.847Z,17.90
2018-05-02T04:14:14.538Z,14.50
2018-05-02T04:16:46.540Z,16.37
2018-05-02T04:19:18.557Z,16.20
2018-05-02T04:21:50.539Z,12.05
2018-05-02T04:24:22.463Z,16.25
2018-05-02T04:26:54.050Z,16.17
2018-05-02T04:29:26.334Z,10.17
2018-05-02T04:31:57.974Z,11.37
2018-05-02T04:34:29.855Z,13.90
2018-05-02T04:39:33.103Z,11.15
2018-05-02T04:42:05.278Z,12.07
2018-05-02T04:44:37.186Z,12.10
2018-05-02T04:47:09.122Z,14.07
2018-05-02T04:49:41.744Z,10.80
2018-05-02T04:52:14.578Z,12.63
2018-05-02T04:54:47.554Z,12.93
2018-05-02T04:57:21.268Z,12.85
2018-05-02T04:59:54.339Z,11.48
2018-05-02T05:02:28.589Z,13.97
2018-05-02T05:05:01.606Z,11.77
2018-05-02T05:07:33.979Z,10.80
2018-05-02T05:10:06.951Z,15.20
2018-05-02T05:12:39.975Z,14.83
2018-05-02T05:15:14.797Z,12.68
2018-05-02T05:17:48.440Z,11.20
2018-05-02T05:20:22.437Z,12.32
2018-05-02T05:22:55.952Z,11.35
2018-05-02T05:25:27.812Z,12.57
2018-05-02T05:27:59.468Z,12.60
2018-05-02T05:30:31.105Z,13.90
2018-05-02T05:33:03.131Z,13.15
2018-05-02T05:35:36.472Z,12.50
2018-05-02T05:38:08.074Z,11.13
2018-05-02T05:40:39.898Z,12.30
2018-05-02T05:43:11.426Z,11.57
2018-05-02T05:45:43.109Z,11.10
2018-05-02T05:48:15.326Z,11.50
2018-05-02T05:50:46.929Z,14.67
2018-05-02T05:53:18.967Z,13.73
2018-05-02T05:55:52.306Z,14.37
2018-05-02T05:58:25.730Z,11.17
2018-05-02T06:00:59.525Z,12.37
2018-05-02T06:03:33.708Z,11.20
2018-05-02T06:06:07.722Z,14.00
2018-05-02T06:08:41.246Z,11.50
2018-05-02T06:11:13.864Z,14.90
2018-05-02T06:13:47.565Z,12.77
2018-05-02T06:16:20.691Z,17.90
2018-05-02T06:18:54.977Z,12.73
2018-05-02T06:21:28.448Z,10.97
2018-05-02T06:24:02.573Z,13.65
2018-05-02T06:26:35.649Z,13.93
2018-05-02T06:29:09.076Z,14.07
2018-05-02T06:31:42.113Z,12.27
2018-05-02T06:34:15.134Z,12.47
2018-05-02T06:36:48.534Z,12.30
2018-05-02T06:39:22.458Z,15.30
2018-05-02T06:41:55.510Z,14.80
2018-05-02T06:44:28.530Z,14.47
2018-05-02T06:47:01.482Z,13.80
2018-05-02T06:49:34.461Z,13.45
2018-05-02T06:52:07.993Z,10.35
2018-05-02T06:54:41.093Z,13.17
2018-05-02T06:57:13.674Z,12.20
2018-05-02T06:59:47.293Z,11.47
2018-05-02T07:02:20.578Z,13.60
2018-05-02T07:04:53.450Z,11.65
2018-05-02T07:07:26.556Z,10.80
2018-05-02T07:09:59.747Z,11.75
2018-05-02T07:12:33.447Z,14.13
2018-05-02T07:15:06.296Z,11.03
2018-05-02T07:17:39.580Z,10.10
2018-05-02T07:20:13.479Z,11.30
2018-05-02T07:22:46.003Z,12.73
2018-05-02T07:25:19.720Z,14.77
2018-05-02T07:27:52.462Z,11.82
2018-05-02T07:30:25.531Z,13.45
2018-05-02T07:32:58.636Z,12.27
2018-05-02T07:35:31.172Z,11.80
2018-05-02T07:38:03.970Z,11.53
2018-05-02T07:40:37.472Z,12.37
2018-05-02T07:43:10.666Z,12.57
2018-05-02T07:45:43.461Z,11.80
2018-05-02T07:48:16.489Z,12.40
2018-05-02T07:50:49.486Z,15.27
2018-05-02T07:53:22.293Z,11.85
2018-05-02T07:55:55.210Z,10.37
2018-05-02T07:58:28.596Z,8.73
2018-05-02T08:01:02.380Z,11.57
2018-05-02T08:03:35.762Z,11.83
2018-05-02T08:06:08.795Z,9.82
2018-05-02T08:08:41.587Z,12.30
2018-05-02T08:11:14.596Z,11.30
2018-05-02T08:13:47.470Z,13.73
2018-05-02T08:16:20.376Z,13.73
2018-05-02T08:18:53.454Z,13.93
2018-05-02T08:21:26.595Z,10.48
2018-05-02T08:23:59.467Z,11.50
2018-05-02T08:26:32.533Z,12.43
2018-05-02T08:29:06.097Z,10.93
2018-05-02T08:31:39.483Z,11.57
2018-05-02T08:34:12.113Z,15.23
2018-05-02T08:36:45.008Z,12.23
2018-05-02T08:39:17.833Z,11.55
2018-05-02T08:44:22.262Z,12.05
2018-05-02T08:46:55.160Z,11.40
2018-05-02T08:49:28.007Z,13.77
2018-05-02T08:52:01.340Z,11.97
2018-05-02T08:54:35.353Z,15.50
2018-05-02T08:57:07.535Z,12.33
2018-05-02T08:59:40.467Z,12.27
2018-05-02T09:02:13.485Z,13.30
2018-05-02T09:04:46.681Z,17.20
2018-05-02T09:07:20.383Z,12.65
2018-05-02T09:09:53.110Z,12.63
2018-05-02T09:12:26.653Z,14.57
2018-05-02T09:14:59.874Z,15.50
2018-05-02T09:17:33.278Z,16.58
2018-05-02T09:20:06.306Z,17.00
2018-05-02T09:22:39.482Z,14.70
2018-05-02T09:25:12.308Z,18.12
2018-05-02T09:27:45.311Z,22.62
2018-05-02T09:30:17.478Z,16.40
2018-05-02T09:32:50.443Z,17.00
2018-05-02T09:35:23.414Z,18.87
2018-05-02T09:37:56.605Z,17.12
2018-05-02T09:40:29.950Z,17.15
2018-05-02T09:43:02.945Z,20.30
2018-05-02T09:45:36.336Z,21.13
2018-05-02T09:48:09.398Z,21.08
2018-05-02T09:50:42.977Z,15.55
2018-05-02T09:53:16.535Z,19.37
2018-05-02T09:55:49.407Z,15.83
2018-05-02T09:58:22.246Z,18.08
2018-05-02T10:00:55.322Z,20.67
2018-05-02T10:03:28.250Z,15.82
2018-05-02T10:06:01.320Z,19.70
2018-05-02T10:08:34.609Z,16.73
2018-05-02T10:11:07.409Z,17.30
2018-05-02T10:13:41.399Z,17.90
2018-05-02T10:16:13.809Z,17.30
2018-05-02T10:18:46.794Z,14.90
2018-05-02T10:21:19.958Z,14.60
2018-05-02T10:23:52.741Z,16.95
2018-05-02T10:26:25.413Z,14.10
2018-05-02T10:28:58.571Z,13.63
2018-05-02T10:31:31.256Z,12.90
2018-05-02T10:34:03.638Z,16.57
2018-05-02T10:36:37.334Z,12.40
2018-05-02T10:39:11.241Z,14.50
2018-05-02T10:41:44.377Z,14.73
2018-05-02T10:44:17.544Z,12.30
2018-05-02T10:46:51.081Z,14.07
2018-05-02T10:49:24.412Z,13.85
2018-05-02T10:51:57.683Z,15.00
2018-05-02T10:54:31.243Z,12.85
2018-05-02T10:57:04.542Z,12.30
2018-05-02T10:59:38.692Z,12.73
2018-05-02T11:02:12.537Z,10.20
2018-05-02T11:04:46.544Z,12.63
2018-05-02T11:07:19.250Z,10.07
2018-05-02T11:09:52.542Z,12.00
2018-05-02T11:12:25.241Z,10.87
2018-05-02T11:14:58.238Z,11.67
2018-05-02T11:17:31.534Z,9.70
2018-05-02T11:20:04.676Z,10.95
2018-05-02T11:22:37.511Z,8.83
2018-05-02T11:25:10.450Z,9.30
2018-05-02T11:27:43.637Z,9.13
2018-05-02T11:30:17.122Z,10.02
2018-05-02T11:32:50.241Z,12.00
2018-05-02T11:35:22.933Z,8.87
2018-05-02T11:37:56.655Z,9.63
2018-05-02T11:40:29.553Z,12.30
2018-05-02T11:43:02.987Z,11.35
2018-05-02T11:45:35.454Z,14.73
2018-05-02T11:48:07.914Z,10.13
2018-05-02T11:50:40.931Z,16.47
2018-05-02T11:53:14.461Z,10.80
2018-05-02T11:55:47.406Z,13.85
2018-05-02T11:58:20.104Z,16.37
2018-05-02T12:00:53.663Z,12.07
2018-05-02T12:03:26.429Z,16.23
2018-05-02T12:05:59.407Z,17.37
2018-05-02T12:08:32.920Z,15.65
2018-05-02T12:11:05.933Z,14.77
2018-05-02T12:13:38.757Z,14.80
2018-05-02T12:16:12.383Z,13.73
2018-05-02T12:18:45.538Z,9.98
2018-05-02T12:21:18.792Z,10.77
2018-05-02T12:26:23.573Z,7.97
2018-05-02T12:28:57.234Z,8.48
2018-05-02T12:31:29.969Z,9.30
2018-05-02T12:34:03.018Z,11.50
2018-05-02T12:36:35.954Z,9.30
2018-05-02T12:41:40.261Z,8.80
2018-05-02T12:44:13.431Z,10.63
2018-05-02T12:46:46.419Z,9.60
2018-05-02T12:49:19.088Z,12.23
2018-05-02T12:51:52.767Z,6.28
2018-05-02T12:54:26.428Z,9.63
2018-05-02T12:56:59.565Z,9.73
2018-05-02T12:59:32.999Z,11.48
2018-05-02T13:02:06.627Z,10.32
2018-05-02T13:04:39.655Z,11.27
2018-05-02T13:07:12.604Z,14.70
2018-05-02T13:09:46.435Z,12.65
2018-05-02T13:12:19.405Z,9.60
2018-05-02T13:14:52.406Z,8.57
2018-05-02T13:17:25.706Z,9.20
2018-05-02T13:19:59.427Z,7.87
2018-05-02T13:22:32.446Z,11.93
2018-05-02T13:25:05.729Z,10.35
2018-05-02T13:27:39.263Z,10.18
2018-05-02T13:30:11.932Z,7.77
2018-05-02T13:32:44.495Z,11.10
2018-05-02T13:35:17.684Z,11.03
2018-05-02T13:37:50.703Z,8.30
2018-05-02T13:40:23.870Z,11.23
2018-05-02T13:42:57.037Z,10.80
2018-05-02T13:45:31.069Z,8.98
2018-05-02T13:48:05.079Z,9.00
2018-05-02T13:50:38.613Z,9.57
2018-05-02T13:53:12.537Z,12.03
2018-05-02T13:55:45.323Z,11.60
2018-05-02T13:58:22.367Z,8.80
2018-05-02T14:00:55.952Z,12.60
2018-05-02T14:03:28.944Z,10.43
2018-05-02T14:06:02.092Z,10.75
2018-05-02T14:08:35.023Z,9.70
2018-05-02T14:11:08.490Z,11.27
2018-05-02T14:13:41.737Z,10.80
2018-05-02T14:16:14.734Z,12.50
2018-05-02T14:18:47.944Z,10.45
2018-05-02T14:21:21.212Z,11.95
2018-05-02T14:23:54.324Z,9.03
2018-05-02T14:26:27.678Z,12.35
2018-05-02T14:29:00.425Z,8.97
2018-05-02T14:31:33.363Z,10.30
2018-05-02T14:34:06.462Z,7.53
2018-05-02T14:39:11.616Z,6.65
2018-05-02T14:41:44.669Z,7.00
2018-05-02T14:44:18.473Z,6.22
2018-05-02T14:46:51.006Z,7.00
2018-05-02T14:49:24.633Z,7.03
2018-05-02T14:51:57.596Z,7.97
2018-05-02T14:54:30.630Z,7.13
2018-05-02T14:59:35.552Z,9.57
2018-05-02T15:02:08.224Z,9.33
2018-05-02T15:04:41.695Z,9.65
2018-05-02T15:07:14.816Z,8.95
2018-05-02T15:09:48.547Z,12.70
2018-05-02T15:13:26.472Z,11.57
2018-05-02T15:15:59.435Z,9.52
2018-05-02T15:18:32.435Z,10.20
2018-05-02T15:21:05.584Z,13.40
2018-05-02T15:23:38.397Z,10.82
2018-05-02T15:26:11.563Z,14.27
2018-05-02T15:28:45.154Z,10.90
2018-05-02T15:31:18.402Z,12.37
2018-05-02T15:33:51.328Z,11.30
2018-05-02T15:36:23.943Z,13.63
2018-05-02T15:38:56.935Z,11.70
2018-05-02T15:41:29.922Z,11.10
2018-05-02T15:44:03.012Z,13.60
2018-05-02T15:46:36.495Z,9.97
2018-05-02T15:49:09.373Z,9.02
2018-05-02T15:51:42.651Z,11.52
2018-05-02T15:54:15.549Z,12.57
2018-05-02T15:56:49.400Z,11.45
2018-05-02T15:59:22.458Z,12.70
2018-05-02T16:01:55.563Z,10.55
2018-05-02T16:04:28.433Z,10.50
2018-05-02T16:07:01.572Z,11.07
2018-05-02T16:09:34.327Z,11.57
2018-05-02T16:12:05.815Z,15.10
2018-05-02T16:14:37.404Z,10.80
2018-05-02T16:17:08.932Z,8.67
2018-05-02T16:19:40.746Z,13.20
2018-05-02T16:22:12.511Z,13.83
2018-05-02T16:24:44.588Z,10.80
2018-05-02T16:27:18.283Z,12.53
2018-05-02T16:29:50.026Z,12.65
2018-05-02T16:32:22.250Z,10.10
2018-05-02T16:36:17.785Z,11.30
2018-05-02T16:38:49.540Z,12.60
2018-05-02T16:41:21.321Z,7.62
2018-05-02T16:43:53.094Z,9.57
2018-05-02T16:46:24.539Z,10.50
2018-05-02T16:51:26.447Z,9.70
2018-05-02T16:53:58.230Z,11.32
2018-05-02T16:56:29.873Z,9.10
2018-05-02T16:59:01.429Z,10.67
2018-05-02T17:01:32.988Z,9.67
2018-05-02T17:04:05.050Z,8.60
2018-05-02T17:06:36.909Z,10.00
2018-05-02T17:09:08.469Z,9.10
2018-05-02T17:11:41.723Z,11.57
2018-05-02T17:14:15.028Z,11.60
2018-05-02T17:16:47.621Z,11.47
2018-05-02T17:19:21.570Z,11.00
2018-05-02T17:21:54.764Z,11.20
2018-05-02T17:24:28.570Z,9.83
2018-05-02T17:27:01.402Z,7.60
2018-05-02T17:29:34.538Z,7.73
2018-05-02T17:32:07.258Z,9.00
2018-05-02T17:34:40.247Z,9.00
2018-05-02T17:37:12.957Z,10.17
2018-05-02T17:39:46.235Z,13.10
2018-05-02T17:42:19.411Z,9.70
2018-05-02T17:44:52.467Z,10.00
2018-05-02T17:47:25.413Z,7.90
2018-05-02T17:49:58.645Z,9.57
2018-05-02T17:52:31.098Z,9.43
2018-05-02T17:55:04.264Z,8.03
2018-05-02T17:57:36.742Z,8.93
2018-05-02T18:00:10.420Z,13.60
2018-05-02T18:02:43.416Z,9.47
2018-05-02T18:05:16.330Z,8.65
2018-05-02T18:07:48.419Z,6.83
2018-05-02T18:10:21.729Z,6.10
2018-05-02T18:12:54.538Z,7.32
2018-05-02T18:15:28.544Z,8.38
2018-05-02T18:18:01.895Z,9.90
2018-05-02T18:20:34.890Z,7.90
2018-05-02T18:23:07.980Z,9.90
2018-05-02T18:25:41.111Z,8.90
2018-05-02T18:28:14.458Z,8.00
2018-05-02T18:30:47.432Z,8.97
2018-05-02T18:33:20.482Z,11.03
2018-05-02T18:35:53.441Z,8.87
2018-05-02T18:38:26.482Z,7.65
2018-05-02T18:40:59.332Z,6.80
2018-05-02T18:43:32.690Z,8.38
2018-05-02T18:46:05.440Z,8.93
2018-05-02T18:48:38.595Z,7.05
2018-05-02T18:51:11.439Z,7.00
2018-05-02T18:53:45.444Z,7.18
2018-05-02T18:56:18.556Z,5.87
2018-05-02T18:58:52.336Z,8.97
2018-05-02T19:01:24.429Z,10.23
2018-05-02T19:03:57.630Z,13.30
2018-05-02T19:06:30.911Z,10.88
2018-05-02T19:11:34.962Z,8.80
2018-05-02T19:14:08.491Z,9.77
2018-05-02T19:19:19.264Z,8.07
2018-05-02T19:21:51.561Z,9.18
2018-05-02T19:24:25.349Z,8.15
2018-05-02T19:26:58.879Z,11.40
2018-05-02T19:29:32.520Z,8.57
2018-05-02T19:32:10.242Z,7.33
2018-05-02T19:34:42.569Z,10.60
2018-05-02T19:37:15.768Z,9.20
2018-05-02T19:39:53.079Z,7.90
2018-05-02T19:42:30.788Z,13.10
2018-05-02T19:45:04.493Z,10.00
2018-05-02T19:47:37.591Z,8.70
2018-05-02T19:50:10.943Z,9.23
2018-05-02T19:52:48.479Z,9.23
2018-05-02T19:55:21.047Z,8.63
2018-05-02T19:57:53.957Z,9.93
2018-05-02T20:00:31.965Z,8.27
2018-05-02T20:03:04.953Z,8.33
2018-05-02T20:05:37.991Z,10.00
2018-05-02T20:10:06.348Z,11.50
2018-05-02T20:12:43.254Z,10.23
2018-05-02T20:15:16.454Z,10.00
2018-05-02T20:17:50.087Z,9.70
2018-05-02T20:20:23.139Z,11.90
2018-05-02T20:22:56.413Z,9.13
2018-05-02T20:25:30.689Z,7.63
2018-05-02T20:28:03.673Z,7.18
2018-05-02T20:30:37.515Z,8.60
2018-05-02T20:33:11.434Z,9.83
2018-05-02T20:35:43.992Z,8.07
2018-05-02T20:38:17.525Z,8.70
2018-05-02T20:40:50.471Z,8.13
2018-05-02T20:43:24.260Z,9.05
2018-05-02T20:45:57.864Z,9.07
2018-05-02T20:48:31.518Z,9.90
2018-05-02T20:51:04.827Z,12.23
2018-05-02T20:53:37.357Z,10.20
2018-05-02T20:56:10.265Z,8.33
2018-05-02T20:58:42.568Z,8.20
2018-05-02T21:01:15.560Z,7.70
2018-05-02T21:03:48.777Z,9.68
2018-05-02T21:06:21.583Z,8.67
2018-05-02T21:08:55.919Z,8.35
2018-05-02T21:11:28.275Z,7.60
2018-05-02T21:14:01.363Z,9.40
2018-05-02T21:16:34.674Z,10.60
2018-05-02T21:19:08.522Z,9.00
2018-05-02T21:21:41.738Z,9.25
2018-05-02T21:24:15.000Z,9.25
2018-05-02T21:26:48.447Z,10.77
2018-05-02T21:29:22.131Z,7.18
2018-05-02T21:31:55.734Z,9.97
2018-05-02T21:34:28.460Z,8.85
2018-05-02T21:37:01.153Z,9.20
2018-05-02T21:39:34.551Z,11.83
2018-05-02T21:42:07.974Z,10.00
2018-05-02T21:44:40.465Z,9.30
2018-05-02T21:47:13.477Z,8.40
2018-05-02T21:49:46.643Z,7.30
2018-05-02T21:52:19.646Z,8.50
2018-05-02T21:54:53.103Z,8.63
2018-05-02T21:57:26.482Z,10.00
2018-05-02T21:59:59.620Z,8.80
2018-05-02T22:02:32.744Z,10.50
2018-05-02T22:05:05.774Z,12.23
2018-05-02T22:07:40.288Z,11.00
2018-05-02T22:10:14.490Z,12.65
2018-05-02T22:12:47.492Z,9.40
2018-05-02T22:15:20.665Z,11.20
2018-05-02T22:17:53.444Z,9.65
2018-05-02T22:20:26.091Z,6.83
2018-05-02T22:22:58.942Z,10.52
2018-05-02T22:25:32.090Z,13.90
2018-05-02T22:28:05.290Z,10.40
2018-05-02T22:30:38.174Z,10.20
2018-05-02T22:35:44.405Z,11.20
2018-05-02T22:38:18.270Z,9.23
2018-05-02T22:40:51.556Z,10.73
2018-05-02T22:43:25.548Z,11.50
2018-05-02T22:45:58.926Z,12.23
2018-05-02T22:48:31.226Z,13.30
2018-05-02T22:51:04.688Z,11.80
2018-05-02T22:53:38.136Z,14.27
2018-05-02T22:56:10.968Z,9.67
2018-05-02T22:58:44.451Z,9.93
2018-05-02T23:01:17.661Z,10.35
2018-05-02T23:03:50.720Z,7.90
2018-05-02T23:06:23.943Z,10.40
2018-05-02T23:08:56.951Z,10.07
2018-05-02T23:14:02.467Z,12.25
2018-05-02T23:16:35.799Z,13.33
2018-05-02T23:19:09.620Z,8.77
2018-05-02T23:21:42.271Z,9.85
2018-05-02T23:24:15.245Z,10.23
2018-05-02T23:26:47.977Z,8.00
2018-05-02T23:29:20.448Z,9.60
2018-05-02T23:31:53.421Z,10.07
2018-05-02T23:34:26.509Z,9.00
2018-05-02T23:37:00.233Z,11.47
2018-05-02T23:39:33.049Z,12.27
2018-05-02T23:42:05.690Z,9.63
2018-05-02T23:45:02.457Z,7.57
2018-05-02T23:47:34.973Z,8.97
2018-05-02T23:50:08.204Z,8.60
2018-05-02T23:52:40.888Z,10.97
2018-05-02T23:55:13.260Z,8.90
2018-05-02T23:57:46.085Z,10.97
